sensor_id;sensor_type;location;lat;lon;timestamp;temperature;humidity
1680;DHT22;838;51.794;12.258;2023-05-21T00:01:11;16.30;34.00
1680;DHT22;838;51.794;12.258;2023-05-21T00:03:41;16.20;35.00
1680;DHT22;838;51.794;12.258;2023-05-21T00:06:07;16.30;36.50
1680;DHT22;838;51.794;12.258;2023-05-21T00:08:32;16.30;35.90
1680;DHT22;838;51.794;12.258;2023-05-21T00:10:58;16.30;35.90
1680;DHT22;838;51.794;12.258;2023-05-21T00:13:24;16.30;35.70
1680;DHT22;838;51.794;12.258;2023-05-21T00:15:50;16.30;35.00
1680;DHT22;838;51.794;12.258;2023-05-21T00:18:16;16.30;34.80
1680;DHT22;838;51.794;12.258;2023-05-21T00:20:42;16.30;35.90
1680;DHT22;838;51.794;12.258;2023-05-21T00:23:08;16.10;37.30
1680;DHT22;838;51.794;12.258;2023-05-21T00:25:34;15.90;41.30
1680;DHT22;838;51.794;12.258;2023-05-21T00:28:00;15.80;42.90
1680;DHT22;838;51.794;12.258;2023-05-21T00:30:25;15.80;43.50
1680;DHT22;838;51.794;12.258;2023-05-21T00:32:51;15.80;43.70
1680;DHT22;838;51.794;12.258;2023-05-21T00:35:17;15.80;44.10
1680;DHT22;838;51.794;12.258;2023-05-21T00:37:43;15.80;43.90
1680;DHT22;838;51.794;12.258;2023-05-21T00:40:09;15.80;45.20
1680;DHT22;838;51.794;12.258;2023-05-21T00:42:36;15.80;44.90
1680;DHT22;838;51.794;12.258;2023-05-21T00:45:06;15.70;45.40
1680;DHT22;838;51.794;12.258;2023-05-21T00:47:32;15.70;46.30
1680;DHT22;838;51.794;12.258;2023-05-21T00:50:00;15.60;47.40
1680;DHT22;838;51.794;12.258;2023-05-21T00:52:26;15.40;49.70
1680;DHT22;838;51.794;12.258;2023-05-21T00:54:52;15.40;51.20
1680;DHT22;838;51.794;12.258;2023-05-21T00:57:18;15.50;51.40
1680;DHT22;838;51.794;12.258;2023-05-21T00:59:50;15.40;49.70
1680;DHT22;838;51.794;12.258;2023-05-21T01:02:16;15.50;50.80
1680;DHT22;838;51.794;12.258;2023-05-21T01:04:44;15.50;50.90
1680;DHT22;838;51.794;12.258;2023-05-21T01:07:10;15.60;50.90
1680;DHT22;838;51.794;12.258;2023-05-21T01:09:35;15.50;49.80
1680;DHT22;838;51.794;12.258;2023-05-21T01:12:02;15.30;51.50
1680;DHT22;838;51.794;12.258;2023-05-21T01:14:28;15.30;51.80
1680;DHT22;838;51.794;12.258;2023-05-21T01:16:57;15.10;55.30
1680;DHT22;838;51.794;12.258;2023-05-21T01:19:24;15.10;57.60
1680;DHT22;838;51.794;12.258;2023-05-21T01:21:52;15.00;58.40
1680;DHT22;838;51.794;12.258;2023-05-21T01:24:20;15.00;59.90
1680;DHT22;838;51.794;12.258;2023-05-21T01:26:46;15.00;60.70
1680;DHT22;838;51.794;12.258;2023-05-21T01:29:13;15.10;59.60
1680;DHT22;838;51.794;12.258;2023-05-21T01:32:13;15.00;59.90
1680;DHT22;838;51.794;12.258;2023-05-21T01:40:15;14.90;62.60
1680;DHT22;838;51.794;12.258;2023-05-21T01:42:43;14.90;63.60
1680;DHT22;838;51.794;12.258;2023-05-21T01:45:10;14.80;65.30
1680;DHT22;838;51.794;12.258;2023-05-21T01:47:38;14.90;64.90
1680;DHT22;838;51.794;12.258;2023-05-21T01:50:04;14.90;63.80
1680;DHT22;838;51.794;12.258;2023-05-21T01:52:30;14.80;64.40
1680;DHT22;838;51.794;12.258;2023-05-21T01:54:56;14.80;65.40
1680;DHT22;838;51.794;12.258;2023-05-21T01:57:22;14.70;66.60
1680;DHT22;838;51.794;12.258;2023-05-21T01:59:48;14.70;67.80
1680;DHT22;838;51.794;12.258;2023-05-21T02:02:14;14.70;67.80
1680;DHT22;838;51.794;12.258;2023-05-21T02:04:39;14.60;69.50
1680;DHT22;838;51.794;12.258;2023-05-21T02:07:06;14.60;69.10
1680;DHT22;838;51.794;12.258;2023-05-21T02:09:32;14.60;70.20
1680;DHT22;838;51.794;12.258;2023-05-21T02:11:58;14.60;69.60
1680;DHT22;838;51.794;12.258;2023-05-21T02:14:23;14.60;71.40
1680;DHT22;838;51.794;12.258;2023-05-21T02:16:52;14.60;70.70
1680;DHT22;838;51.794;12.258;2023-05-21T02:19:17;14.60;72.00
1680;DHT22;838;51.794;12.258;2023-05-21T02:21:43;14.70;71.40
1680;DHT22;838;51.794;12.258;2023-05-21T02:24:10;14.70;71.50
1680;DHT22;838;51.794;12.258;2023-05-21T02:26:35;14.70;71.00
1680;DHT22;838;51.794;12.258;2023-05-21T02:29:02;14.60;71.30
1680;DHT22;838;51.794;12.258;2023-05-21T02:31:28;14.60;72.70
1680;DHT22;838;51.794;12.258;2023-05-21T02:33:54;14.60;73.30
1680;DHT22;838;51.794;12.258;2023-05-21T02:36:20;14.60;73.90
1680;DHT22;838;51.794;12.258;2023-05-21T02:38:46;14.60;74.50
1680;DHT22;838;51.794;12.258;2023-05-21T02:41:12;14.60;74.40
1680;DHT22;838;51.794;12.258;2023-05-21T02:43:38;14.60;74.80
1680;DHT22;838;51.794;12.258;2023-05-21T02:46:05;14.50;74.80
1680;DHT22;838;51.794;12.258;2023-05-21T02:48:30;14.60;75.40
1680;DHT22;838;51.794;12.258;2023-05-21T02:50:57;14.60;76.00
1680;DHT22;838;51.794;12.258;2023-05-21T02:53:23;14.70;76.10
1680;DHT22;838;51.794;12.258;2023-05-21T02:55:49;14.70;75.10
1680;DHT22;838;51.794;12.258;2023-05-21T02:58:14;14.80;74.10
1680;DHT22;838;51.794;12.258;2023-05-21T03:00:40;14.80;74.40
1680;DHT22;838;51.794;12.258;2023-05-21T03:03:06;14.80;74.90
1680;DHT22;838;51.794;12.258;2023-05-21T03:05:32;14.80;73.60
1680;DHT22;838;51.794;12.258;2023-05-21T03:07:57;14.80;74.40
1680;DHT22;838;51.794;12.258;2023-05-21T03:10:23;14.80;73.80
1680;DHT22;838;51.794;12.258;2023-05-21T03:12:49;14.80;73.70
1680;DHT22;838;51.794;12.258;2023-05-21T03:15:15;14.80;74.20
1680;DHT22;838;51.794;12.258;2023-05-21T03:17:41;14.90;73.90
1680;DHT22;838;51.794;12.258;2023-05-21T03:20:09;14.90;73.90
1680;DHT22;838;51.794;12.258;2023-05-21T03:22:42;14.90;73.90
1680;DHT22;838;51.794;12.258;2023-05-21T03:25:11;15.00;72.80
1680;DHT22;838;51.794;12.258;2023-05-21T03:27:38;15.10;71.70
1680;DHT22;838;51.794;12.258;2023-05-21T03:30:04;15.10;72.00
1680;DHT22;838;51.794;12.258;2023-05-21T03:32:30;15.10;70.40
1680;DHT22;838;51.794;12.258;2023-05-21T03:34:58;15.20;70.40
1680;DHT22;838;51.794;12.258;2023-05-21T03:37:24;15.20;70.50
1680;DHT22;838;51.794;12.258;2023-05-21T03:39:50;15.00;71.10
1680;DHT22;838;51.794;12.258;2023-05-21T03:42:16;15.00;72.50
1680;DHT22;838;51.794;12.258;2023-05-21T03:44:41;14.90;73.30
1680;DHT22;838;51.794;12.258;2023-05-21T03:47:07;15.00;73.70
1680;DHT22;838;51.794;12.258;2023-05-21T03:49:33;14.90;72.80
1680;DHT22;838;51.794;12.258;2023-05-21T03:51:58;15.00;73.90
1680;DHT22;838;51.794;12.258;2023-05-21T03:54:24;15.00;73.40
1680;DHT22;838;51.794;12.258;2023-05-21T03:56:50;15.10;73.00
1680;DHT22;838;51.794;12.258;2023-05-21T03:59:16;15.40;70.60
1680;DHT22;838;51.794;12.258;2023-05-21T04:01:41;15.60;67.90
1680;DHT22;838;51.794;12.258;2023-05-21T04:04:08;15.90;66.40
1680;DHT22;838;51.794;12.258;2023-05-21T04:06:33;16.10;62.30
1680;DHT22;838;51.794;12.258;2023-05-21T04:08:59;16.10;61.60
1680;DHT22;838;51.794;12.258;2023-05-21T04:11:25;16.00;62.10
1680;DHT22;838;51.794;12.258;2023-05-21T04:13:51;15.90;63.10
1680;DHT22;838;51.794;12.258;2023-05-21T04:16:17;15.90;63.50
1680;DHT22;838;51.794;12.258;2023-05-21T04:18:44;15.90;64.20
1680;DHT22;838;51.794;12.258;2023-05-21T04:21:10;16.00;63.20
1680;DHT22;838;51.794;12.258;2023-05-21T04:23:36;16.10;61.50
1680;DHT22;838;51.794;12.258;2023-05-21T04:26:02;16.00;61.50
1680;DHT22;838;51.794;12.258;2023-05-21T04:28:27;15.60;64.10
1680;DHT22;838;51.794;12.258;2023-05-21T04:30:53;15.70;65.90
1680;DHT22;838;51.794;12.258;2023-05-21T04:33:21;15.70;67.30
1680;DHT22;838;51.794;12.258;2023-05-21T04:35:49;15.70;67.80
1680;DHT22;838;51.794;12.258;2023-05-21T04:38:16;15.70;68.40
1680;DHT22;838;51.794;12.258;2023-05-21T04:40:49;15.80;66.20
1680;DHT22;838;51.794;12.258;2023-05-21T04:43:15;15.80;66.40
1680;DHT22;838;51.794;12.258;2023-05-21T04:45:42;15.80;67.40
1680;DHT22;838;51.794;12.258;2023-05-21T04:48:08;15.90;67.00
1680;DHT22;838;51.794;12.258;2023-05-21T04:50:33;16.10;67.10
1680;DHT22;838;51.794;12.258;2023-05-21T04:53:00;16.10;64.40
1680;DHT22;838;51.794;12.258;2023-05-21T04:55:26;16.10;63.70
1680;DHT22;838;51.794;12.258;2023-05-21T04:57:53;16.30;62.50
1680;DHT22;838;51.794;12.258;2023-05-21T05:00:20;16.40;60.20
1680;DHT22;838;51.794;12.258;2023-05-21T05:02:46;16.30;60.60
1680;DHT22;838;51.794;12.258;2023-05-21T05:05:12;16.20;62.30
1680;DHT22;838;51.794;12.258;2023-05-21T05:07:38;16.50;61.20
1680;DHT22;838;51.794;12.258;2023-05-21T05:10:04;16.50;59.50
1680;DHT22;838;51.794;12.258;2023-05-21T05:12:30;16.70;58.30
1680;DHT22;838;51.794;12.258;2023-05-21T05:14:56;16.90;54.20
1680;DHT22;838;51.794;12.258;2023-05-21T05:17:21;16.90;54.20
1680;DHT22;838;51.794;12.258;2023-05-21T05:19:47;16.90;54.10
1680;DHT22;838;51.794;12.258;2023-05-21T05:22:13;17.00;53.30
1680;DHT22;838;51.794;12.258;2023-05-21T05:24:38;16.90;54.20
1680;DHT22;838;51.794;12.258;2023-05-21T05:27:04;16.90;54.20
1680;DHT22;838;51.794;12.258;2023-05-21T05:29:30;16.80;55.30
1680;DHT22;838;51.794;12.258;2023-05-21T05:31:56;16.80;57.20
1680;DHT22;838;51.794;12.258;2023-05-21T05:34:21;17.20;54.40
1680;DHT22;838;51.794;12.258;2023-05-21T05:36:47;17.10;53.60
1680;DHT22;838;51.794;12.258;2023-05-21T05:39:13;17.30;54.60
1680;DHT22;838;51.794;12.258;2023-05-21T05:44:05;17.30;51.00
1680;DHT22;838;51.794;12.258;2023-05-21T05:46:30;17.50;53.40
1680;DHT22;838;51.794;12.258;2023-05-21T05:48:57;17.80;51.50
1680;DHT22;838;51.794;12.258;2023-05-21T05:51:23;18.00;46.00
1680;DHT22;838;51.794;12.258;2023-05-21T05:53:48;17.90;47.60
1680;DHT22;838;51.794;12.258;2023-05-21T05:56:15;17.80;49.20
1680;DHT22;838;51.794;12.258;2023-05-21T05:58:41;18.00;48.50
1680;DHT22;838;51.794;12.258;2023-05-21T06:01:07;17.80;48.00
1680;DHT22;838;51.794;12.258;2023-05-21T06:03:33;17.90;48.10
1680;DHT22;838;51.794;12.258;2023-05-21T06:05:58;18.00;47.60
1680;DHT22;838;51.794;12.258;2023-05-21T06:08:24;18.00;46.00
1680;DHT22;838;51.794;12.258;2023-05-21T06:10:50;17.90;50.00
1680;DHT22;838;51.794;12.258;2023-05-21T06:13:15;18.00;50.00
1680;DHT22;838;51.794;12.258;2023-05-21T06:15:41;18.30;49.20
1680;DHT22;838;51.794;12.258;2023-05-21T06:18:10;18.50;49.50
1680;DHT22;838;51.794;12.258;2023-05-21T06:20:35;18.70;44.00
1680;DHT22;838;51.794;12.258;2023-05-21T06:23:01;18.70;42.90
1680;DHT22;838;51.794;12.258;2023-05-21T06:25:27;18.70;43.90
1680;DHT22;838;51.794;12.258;2023-05-21T06:27:52;18.80;43.40
1680;DHT22;838;51.794;12.258;2023-05-21T06:30:18;18.70;44.50
1680;DHT22;838;51.794;12.258;2023-05-21T06:32:44;18.90;43.80
1680;DHT22;838;51.794;12.258;2023-05-21T06:35:11;19.00;42.90
1680;DHT22;838;51.794;12.258;2023-05-21T06:37:36;19.20;43.00
1680;DHT22;838;51.794;12.258;2023-05-21T06:40:02;19.50;38.20
1680;DHT22;838;51.794;12.258;2023-05-21T06:42:28;19.80;36.00
1680;DHT22;838;51.794;12.258;2023-05-21T06:44:54;20.00;34.30
1680;DHT22;838;51.794;12.258;2023-05-21T06:47:20;19.80;34.00
1680;DHT22;838;51.794;12.258;2023-05-21T06:49:46;19.60;34.20
1680;DHT22;838;51.794;12.258;2023-05-21T06:52:11;19.50;38.80
1680;DHT22;838;51.794;12.258;2023-05-21T06:54:37;19.50;39.80
1680;DHT22;838;51.794;12.258;2023-05-21T06:57:03;19.50;40.80
1680;DHT22;838;51.794;12.258;2023-05-21T06:59:28;19.60;41.10
1680;DHT22;838;51.794;12.258;2023-05-21T07:01:54;19.60;41.00
1680;DHT22;838;51.794;12.258;2023-05-21T07:04:20;19.50;38.80
1680;DHT22;838;51.794;12.258;2023-05-21T07:06:45;19.60;38.00
1680;DHT22;838;51.794;12.258;2023-05-21T07:09:11;19.90;39.80
1680;DHT22;838;51.794;12.258;2023-05-21T07:11:37;20.00;36.80
1680;DHT22;838;51.794;12.258;2023-05-21T07:14:03;19.90;37.80
1680;DHT22;838;51.794;12.258;2023-05-21T07:16:29;19.90;39.10
1680;DHT22;838;51.794;12.258;2023-05-21T07:18:54;20.00;37.00
1680;DHT22;838;51.794;12.258;2023-05-21T07:21:20;20.20;37.10
1680;DHT22;838;51.794;12.258;2023-05-21T07:23:46;20.50;35.50
1680;DHT22;838;51.794;12.258;2023-05-21T07:26:12;20.70;30.90
1680;DHT22;838;51.794;12.258;2023-05-21T07:28:38;21.20;31.60
1680;DHT22;838;51.794;12.258;2023-05-21T07:31:03;21.50;26.70
1680;DHT22;838;51.794;12.258;2023-05-21T07:33:29;21.80;27.40
1680;DHT22;838;51.794;12.258;2023-05-21T07:35:55;22.20;21.50
1680;DHT22;838;51.794;12.258;2023-05-21T07:38:20;22.40;17.50
1680;DHT22;838;51.794;12.258;2023-05-21T07:40:46;22.50;17.40
1680;DHT22;838;51.794;12.258;2023-05-21T07:43:12;22.70;19.40
1680;DHT22;838;51.794;12.258;2023-05-21T07:45:38;22.90;19.40
1680;DHT22;838;51.794;12.258;2023-05-21T07:48:03;22.70;20.60
1680;DHT22;838;51.794;12.258;2023-05-21T07:50:29;23.00;18.50
1680;DHT22;838;51.794;12.258;2023-05-21T07:52:55;23.30;17.70
1680;DHT22;838;51.794;12.258;2023-05-21T07:55:21;23.30;13.40
1680;DHT22;838;51.794;12.258;2023-05-21T07:57:47;23.20;17.90
1680;DHT22;838;51.794;12.258;2023-05-21T08:00:14;23.20;11.20
1680;DHT22;838;51.794;12.258;2023-05-21T08:02:40;23.20;13.20
1680;DHT22;838;51.794;12.258;2023-05-21T08:05:06;23.30;15.50
1680;DHT22;838;51.794;12.258;2023-05-21T08:07:31;23.20;17.00
1680;DHT22;838;51.794;12.258;2023-05-21T08:09:58;23.30;15.50
1680;DHT22;838;51.794;12.258;2023-05-21T08:12:27;23.30;12.90
1680;DHT22;838;51.794;12.258;2023-05-21T08:14:53;23.80;11.60
1680;DHT22;838;51.794;12.258;2023-05-21T08:17:18;23.70;13.00
1680;DHT22;838;51.794;12.258;2023-05-21T08:19:44;23.80;10.80
1680;DHT22;838;51.794;12.258;2023-05-21T08:22:13;23.90;10.70
1680;DHT22;838;51.794;12.258;2023-05-21T08:24:38;23.90;14.60
1680;DHT22;838;51.794;12.258;2023-05-21T08:27:05;24.30;12.00
1680;DHT22;838;51.794;12.258;2023-05-21T08:29:32;24.70;5.50
1680;DHT22;838;51.794;12.258;2023-05-21T08:31:58;25.10;3.60
1680;DHT22;838;51.794;12.258;2023-05-21T08:34:24;25.30;3.10
1680;DHT22;838;51.794;12.258;2023-05-21T08:36:51;25.50;2.50
1680;DHT22;838;51.794;12.258;2023-05-21T08:39:18;25.60;2.60
1680;DHT22;838;51.794;12.258;2023-05-21T08:41:44;25.90;2.60
1680;DHT22;838;51.794;12.258;2023-05-21T08:44:14;25.90;2.80
1680;DHT22;838;51.794;12.258;2023-05-21T08:46:44;25.70;1.00
1680;DHT22;838;51.794;12.258;2023-05-21T08:49:16;25.60;1.70
1680;DHT22;838;51.794;12.258;2023-05-21T08:51:44;25.80;1.00
1680;DHT22;838;51.794;12.258;2023-05-21T08:54:11;26.10;1.00
1680;DHT22;838;51.794;12.258;2023-05-21T08:56:39;27.00;1.00
1680;DHT22;838;51.794;12.258;2023-05-21T08:59:10;28.60;1.00
1680;DHT22;838;51.794;12.258;2023-05-21T09:01:37;30.40;1.00
1680;DHT22;838;51.794;12.258;2023-05-21T09:04:07;31.70;1.00
1680;DHT22;838;51.794;12.258;2023-05-21T09:06:33;32.70;1.00
1680;DHT22;838;51.794;12.258;2023-05-21T09:09:05;32.60;1.00
1680;DHT22;838;51.794;12.258;2023-05-21T09:11:36;31.80;1.00
1680;DHT22;838;51.794;12.258;2023-05-21T09:14:02;31.40;1.00
1680;DHT22;838;51.794;12.258;2023-05-21T09:16:28;32.20;1.00
1680;DHT22;838;51.794;12.258;2023-05-21T09:18:56;32.70;1.00
1680;DHT22;838;51.794;12.258;2023-05-21T09:21:27;32.40;1.00
1680;DHT22;838;51.794;12.258;2023-05-21T09:23:54;31.20;1.00
1680;DHT22;838;51.794;12.258;2023-05-21T09:26:21;30.30;1.00
1680;DHT22;838;51.794;12.258;2023-05-21T09:28:47;30.20;1.00
1680;DHT22;838;51.794;12.258;2023-05-21T09:31:13;29.70;1.00
1680;DHT22;838;51.794;12.258;2023-05-21T09:33:45;29.10;1.00
1680;DHT22;838;51.794;12.258;2023-05-21T09:36:12;28.70;1.00
1680;DHT22;838;51.794;12.258;2023-05-21T09:38:38;28.90;1.00
1680;DHT22;838;51.794;12.258;2023-05-21T09:41:04;29.30;1.00
1680;DHT22;838;51.794;12.258;2023-05-21T09:43:31;29.60;1.00
1680;DHT22;838;51.794;12.258;2023-05-21T09:45:58;29.80;1.00
1680;DHT22;838;51.794;12.258;2023-05-21T09:48:38;30.10;1.00
1680;DHT22;838;51.794;12.258;2023-05-21T09:51:11;30.00;1.00
1680;DHT22;838;51.794;12.258;2023-05-21T09:56:13;29.80;1.00
1680;DHT22;838;51.794;12.258;2023-05-21T09:58:39;29.90;1.00
1680;DHT22;838;51.794;12.258;2023-05-21T10:01:06;29.80;1.00
1680;DHT22;838;51.794;12.258;2023-05-21T10:03:32;29.60;1.00
1680;DHT22;838;51.794;12.258;2023-05-21T10:06:03;29.10;1.00
1680;DHT22;838;51.794;12.258;2023-05-21T10:10:58;28.00;1.00
1680;DHT22;838;51.794;12.258;2023-05-21T10:13:25;28.30;1.00
1680;DHT22;838;51.794;12.258;2023-05-21T10:16:00;28.30;1.00
1680;DHT22;838;51.794;12.258;2023-05-21T10:18:29;28.30;1.00
1680;DHT22;838;51.794;12.258;2023-05-21T10:20:55;28.20;1.00
1680;DHT22;838;51.794;12.258;2023-05-21T10:23:25;28.30;1.00
1680;DHT22;838;51.794;12.258;2023-05-21T10:25:51;28.40;1.00
1680;DHT22;838;51.794;12.258;2023-05-21T10:28:19;28.70;1.00
1680;DHT22;838;51.794;12.258;2023-05-21T10:30:45;28.50;1.00
1680;DHT22;838;51.794;12.258;2023-05-21T10:33:17;28.30;1.00
1680;DHT22;838;51.794;12.258;2023-05-21T10:35:45;27.90;1.00
1680;DHT22;838;51.794;12.258;2023-05-21T10:38:12;27.90;1.00
1680;DHT22;838;51.794;12.258;2023-05-21T10:40:39;27.70;1.00
1680;DHT22;838;51.794;12.258;2023-05-21T10:48:16;28.20;1.00
1680;DHT22;838;51.794;12.258;2023-05-21T10:50:50;28.40;1.00
1680;DHT22;838;51.794;12.258;2023-05-21T10:56:27;28.20;1.00
1680;DHT22;838;51.794;12.258;2023-05-21T11:01:50;28.30;1.00
1680;DHT22;838;51.794;12.258;2023-05-21T11:04:25;28.70;1.00
1680;DHT22;838;51.794;12.258;2023-05-21T11:06:51;29.00;1.00
1680;DHT22;838;51.794;12.258;2023-05-21T11:09:17;29.10;1.00
1680;DHT22;838;51.794;12.258;2023-05-21T11:11:45;29.00;1.00
1680;DHT22;838;51.794;12.258;2023-05-21T11:17:44;28.60;1.00
1680;DHT22;838;51.794;12.258;2023-05-21T11:19:45;28.40;1.00
1680;DHT22;838;51.794;12.258;2023-05-21T11:22:26;28.20;1.00
1680;DHT22;838;51.794;12.258;2023-05-21T11:24:57;28.40;1.00
1680;DHT22;838;51.794;12.258;2023-05-21T11:27:39;28.60;1.00
1680;DHT22;838;51.794;12.258;2023-05-21T11:32:39;28.80;1.00
1680;DHT22;838;51.794;12.258;2023-05-21T11:35:06;28.80;1.00
1680;DHT22;838;51.794;12.258;2023-05-21T11:37:33;28.90;1.00
1680;DHT22;838;51.794;12.258;2023-05-21T11:40:20;28.90;1.00
1680;DHT22;838;51.794;12.258;2023-05-21T11:42:49;28.90;1.00
1680;DHT22;838;51.794;12.258;2023-05-21T11:45:17;28.70;1.00
1680;DHT22;838;51.794;12.258;2023-05-21T11:47:45;28.80;1.00
1680;DHT22;838;51.794;12.258;2023-05-21T11:50:13;28.80;1.00
1680;DHT22;838;51.794;12.258;2023-05-21T11:52:39;29.00;1.00
1680;DHT22;838;51.794;12.258;2023-05-21T11:55:06;29.10;1.00
1680;DHT22;838;51.794;12.258;2023-05-21T11:57:32;29.10;1.00
1680;DHT22;838;51.794;12.258;2023-05-21T11:59:59;29.10;1.00
1680;DHT22;838;51.794;12.258;2023-05-21T12:02:31;29.10;1.00
1680;DHT22;838;51.794;12.258;2023-05-21T12:04:56;29.20;1.00
1680;DHT22;838;51.794;12.258;2023-05-21T12:07:27;29.40;1.00
1680;DHT22;838;51.794;12.258;2023-05-21T12:09:56;29.60;1.00
1680;DHT22;838;51.794;12.258;2023-05-21T12:12:26;29.70;1.00
1680;DHT22;838;51.794;12.258;2023-05-21T12:14:53;29.70;1.00
1680;DHT22;838;51.794;12.258;2023-05-21T12:17:21;29.50;1.00
1680;DHT22;838;51.794;12.258;2023-05-21T12:19:49;29.50;1.00
1680;DHT22;838;51.794;12.258;2023-05-21T12:22:15;29.40;1.00
1680;DHT22;838;51.794;12.258;2023-05-21T12:24:41;28.90;1.00
1680;DHT22;838;51.794;12.258;2023-05-21T12:27:10;28.90;1.00
1680;DHT22;838;51.794;12.258;2023-05-21T12:29:46;29.00;1.00
1680;DHT22;838;51.794;12.258;2023-05-21T12:32:14;29.10;1.00
1680;DHT22;838;51.794;12.258;2023-05-21T12:34:51;29.20;1.00
1680;DHT22;838;51.794;12.258;2023-05-21T12:39:49;28.20;1.00
1680;DHT22;838;51.794;12.258;2023-05-21T12:42:15;27.80;1.00
1680;DHT22;838;51.794;12.258;2023-05-21T12:44:46;28.00;1.00
1680;DHT22;838;51.794;12.258;2023-05-21T12:47:12;28.10;1.00
1680;DHT22;838;51.794;12.258;2023-05-21T12:49:42;28.50;1.00
1680;DHT22;838;51.794;12.258;2023-05-21T12:52:13;28.50;1.00
1680;DHT22;838;51.794;12.258;2023-05-21T12:54:42;28.60;1.00
1680;DHT22;838;51.794;12.258;2023-05-21T12:57:14;28.70;1.00
1680;DHT22;838;51.794;12.258;2023-05-21T13:02:22;28.60;1.00
1680;DHT22;838;51.794;12.258;2023-05-21T13:04:52;28.80;1.00
1680;DHT22;838;51.794;12.258;2023-05-21T13:07:18;29.20;1.00
1680;DHT22;838;51.794;12.258;2023-05-21T13:09:44;29.40;1.00
1680;DHT22;838;51.794;12.258;2023-05-21T13:12:11;29.50;1.00
1680;DHT22;838;51.794;12.258;2023-05-21T13:14:37;29.30;1.00
1680;DHT22;838;51.794;12.258;2023-05-21T13:17:03;29.40;1.00
1680;DHT22;838;51.794;12.258;2023-05-21T13:19:29;29.30;1.00
1680;DHT22;838;51.794;12.258;2023-05-21T13:21:55;29.00;1.00
1680;DHT22;838;51.794;12.258;2023-05-21T13:24:21;29.20;1.00
1680;DHT22;838;51.794;12.258;2023-05-21T13:26:46;29.30;1.00
1680;DHT22;838;51.794;12.258;2023-05-21T13:29:15;29.70;1.00
1680;DHT22;838;51.794;12.258;2023-05-21T13:31:42;29.90;1.00
1680;DHT22;838;51.794;12.258;2023-05-21T13:34:10;29.70;1.00
1680;DHT22;838;51.794;12.258;2023-05-21T13:36:36;29.60;1.00
1680;DHT22;838;51.794;12.258;2023-05-21T13:39:03;29.40;1.00
1680;DHT22;838;51.794;12.258;2023-05-21T13:41:28;29.30;1.00
1680;DHT22;838;51.794;12.258;2023-05-21T13:43:55;29.10;1.00
1680;DHT22;838;51.794;12.258;2023-05-21T13:46:20;29.20;1.00
1680;DHT22;838;51.794;12.258;2023-05-21T13:48:46;29.30;1.00
1680;DHT22;838;51.794;12.258;2023-05-21T13:51:12;29.10;1.00
1680;DHT22;838;51.794;12.258;2023-05-21T13:53:38;29.00;1.00
1680;DHT22;838;51.794;12.258;2023-05-21T13:56:04;29.10;1.00
1680;DHT22;838;51.794;12.258;2023-05-21T13:58:33;29.20;1.00
1680;DHT22;838;51.794;12.258;2023-05-21T14:01:02;29.30;1.00
1680;DHT22;838;51.794;12.258;2023-05-21T14:03:28;29.40;1.00
1680;DHT22;838;51.794;12.258;2023-05-21T14:05:55;29.30;1.00
1680;DHT22;838;51.794;12.258;2023-05-21T14:08:23;29.70;1.00
1680;DHT22;838;51.794;12.258;2023-05-21T14:10:49;29.60;1.00
1680;DHT22;838;51.794;12.258;2023-05-21T14:13:15;29.50;1.00
1680;DHT22;838;51.794;12.258;2023-05-21T14:15:41;29.30;1.00
1680;DHT22;838;51.794;12.258;2023-05-21T14:18:07;29.10;1.00
1680;DHT22;838;51.794;12.258;2023-05-21T14:20:37;28.80;1.00
1680;DHT22;838;51.794;12.258;2023-05-21T14:23:03;28.50;1.00
1680;DHT22;838;51.794;12.258;2023-05-21T14:25:29;28.40;1.00
1680;DHT22;838;51.794;12.258;2023-05-21T14:27:55;28.40;1.00
1680;DHT22;838;51.794;12.258;2023-05-21T14:30:21;28.40;1.00
1680;DHT22;838;51.794;12.258;2023-05-21T14:32:47;28.30;1.00
1680;DHT22;838;51.794;12.258;2023-05-21T14:35:12;28.10;1.00
1680;DHT22;838;51.794;12.258;2023-05-21T14:37:38;28.00;1.00
1680;DHT22;838;51.794;12.258;2023-05-21T14:40:05;28.40;1.00
1680;DHT22;838;51.794;12.258;2023-05-21T14:42:32;28.60;1.00
1680;DHT22;838;51.794;12.258;2023-05-21T14:44:59;28.40;1.00
1680;DHT22;838;51.794;12.258;2023-05-21T14:47:25;28.30;1.00
1680;DHT22;838;51.794;12.258;2023-05-21T14:49:50;28.10;1.00
1680;DHT22;838;51.794;12.258;2023-05-21T14:52:16;28.10;1.00
1680;DHT22;838;51.794;12.258;2023-05-21T14:57:08;27.90;1.00
1680;DHT22;838;51.794;12.258;2023-05-21T14:59:34;28.10;1.00
1680;DHT22;838;51.794;12.258;2023-05-21T15:02:03;28.00;1.00
1680;DHT22;838;51.794;12.258;2023-05-21T15:04:29;28.00;1.00
1680;DHT22;838;51.794;12.258;2023-05-21T15:06:54;27.80;1.00
1680;DHT22;838;51.794;12.258;2023-05-21T15:09:20;27.90;1.00
1680;DHT22;838;51.794;12.258;2023-05-21T15:11:46;27.90;1.00
1680;DHT22;838;51.794;12.258;2023-05-21T15:14:17;28.00;1.00
1680;DHT22;838;51.794;12.258;2023-05-21T15:16:43;27.90;1.00
1680;DHT22;838;51.794;12.258;2023-05-21T15:19:08;27.90;1.00
1680;DHT22;838;51.794;12.258;2023-05-21T15:21:36;27.90;1.00
1680;DHT22;838;51.794;12.258;2023-05-21T15:24:02;27.90;1.00
1680;DHT22;838;51.794;12.258;2023-05-21T15:26:28;27.80;1.00
1680;DHT22;838;51.794;12.258;2023-05-21T15:28:54;27.80;1.00
1680;DHT22;838;51.794;12.258;2023-05-21T15:31:20;27.60;1.00
1680;DHT22;838;51.794;12.258;2023-05-21T15:33:45;27.50;1.00
1680;DHT22;838;51.794;12.258;2023-05-21T15:36:11;27.60;1.00
1680;DHT22;838;51.794;12.258;2023-05-21T15:38:37;27.50;1.00
1680;DHT22;838;51.794;12.258;2023-05-21T15:41:02;27.40;1.00
1680;DHT22;838;51.794;12.258;2023-05-21T15:43:29;27.30;1.00
1680;DHT22;838;51.794;12.258;2023-05-21T15:45:55;27.30;1.00
1680;DHT22;838;51.794;12.258;2023-05-21T15:48:21;27.20;1.00
1680;DHT22;838;51.794;12.258;2023-05-21T15:50:50;27.30;1.00
1680;DHT22;838;51.794;12.258;2023-05-21T15:53:16;27.50;1.00
1680;DHT22;838;51.794;12.258;2023-05-21T15:55:41;27.70;1.00
1680;DHT22;838;51.794;12.258;2023-05-21T15:58:07;28.10;1.00
1680;DHT22;838;51.794;12.258;2023-05-21T16:00:33;28.10;1.00
1680;DHT22;838;51.794;12.258;2023-05-21T16:02:59;28.00;1.00
1680;DHT22;838;51.794;12.258;2023-05-21T16:05:25;28.00;1.00
1680;DHT22;838;51.794;12.258;2023-05-21T16:07:51;28.10;1.00
1680;DHT22;838;51.794;12.258;2023-05-21T16:10:17;28.20;1.00
1680;DHT22;838;51.794;12.258;2023-05-21T16:12:42;28.50;1.00
1680;DHT22;838;51.794;12.258;2023-05-21T16:15:08;28.50;1.00
1680;DHT22;838;51.794;12.258;2023-05-21T16:17:35;28.50;1.00
1680;DHT22;838;51.794;12.258;2023-05-21T16:20:01;28.70;1.00
1680;DHT22;838;51.794;12.258;2023-05-21T16:22:26;28.30;1.00
1680;DHT22;838;51.794;12.258;2023-05-21T16:24:53;28.10;1.00
1680;DHT22;838;51.794;12.258;2023-05-21T16:27:19;27.90;1.00
1680;DHT22;838;51.794;12.258;2023-05-21T16:29:44;27.80;1.00
1680;DHT22;838;51.794;12.258;2023-05-21T16:32:10;27.50;1.00
1680;DHT22;838;51.794;12.258;2023-05-21T16:34:38;27.50;1.00
1680;DHT22;838;51.794;12.258;2023-05-21T16:37:04;27.50;1.00
1680;DHT22;838;51.794;12.258;2023-05-21T16:39:31;27.50;1.00
1680;DHT22;838;51.794;12.258;2023-05-21T16:41:57;27.50;1.00
1680;DHT22;838;51.794;12.258;2023-05-21T16:44:24;27.30;1.00